Terminal Aerodrome Forecast
Issued by NWS

Home | Current Version | Previous Version | Text Only | Print | Product List | Glossary On
Versions: 1 2 3 4 5 6 7 8 9 10 11 12 13 14 15 16 17 18 19
923
FTUS45 KTFX 191745
TAFHVR
TAF
KHVR 191745Z 1918/2018 VRB05KT 3SM -SN BR SCT035 OVC050
     FM192300 23006KT P6SM BKN050
     FM200700 24007KT P6SM FEW010 SCT120
     FM201600 22012KT P6SM BKN060=

USA.gov is the U.S. government's official web portal to all federal, state and local government web resources and services.